sensor_id;sensor_type;location;lat;lon;timestamp;P1;durP1;ratioP1;P2;durP2;ratioP2
72951;SDS011;61102;51.956;5.878;2023-03-31T00:00:29;5.43;;;0.88;;
72951;SDS011;61102;51.956;5.878;2023-03-31T00:02:55;4.78;;;0.88;;
72951;SDS011;61102;51.956;5.878;2023-03-31T00:05:23;6.00;;;0.90;;
72951;SDS011;61102;51.956;5.878;2023-03-31T00:10:26;3.63;;;0.60;;
72951;SDS011;61102;51.956;5.878;2023-03-31T00:12:53;5.05;;;0.80;;
72951;SDS011;61102;51.956;5.878;2023-03-31T00:15:19;6.65;;;1.10;;
72951;SDS011;61102;51.956;5.878;2023-03-31T00:17:45;7.07;;;1.20;;
72951;SDS011;61102;51.956;5.878;2023-03-31T00:20:12;3.78;;;0.50;;
72951;SDS011;61102;51.956;5.878;2023-03-31T00:22:39;6.30;;;0.98;;
72951;SDS011;61102;51.956;5.878;2023-03-31T00:25:11;5.35;;;0.90;;
72951;SDS011;61102;51.956;5.878;2023-03-31T00:30:11;6.25;;;1.00;;
72951;SDS011;61102;51.956;5.878;2023-03-31T00:32:38;7.00;;;1.02;;
72951;SDS011;61102;51.956;5.878;2023-03-31T00:35:04;5.60;;;0.85;;
72951;SDS011;61102;51.956;5.878;2023-03-31T00:37:31;4.97;;;0.90;;
72951;SDS011;61102;51.956;5.878;2023-03-31T00:39:58;4.93;;;0.68;;
72951;SDS011;61102;51.956;5.878;2023-03-31T00:42:25;3.88;;;0.70;;
72951;SDS011;61102;51.956;5.878;2023-03-31T00:47:39;6.20;;;0.70;;
72951;SDS011;61102;51.956;5.878;2023-03-31T00:53:11;4.90;;;0.70;;
72951;SDS011;61102;51.956;5.878;2023-03-31T00:55:43;5.15;;;0.70;;
72951;SDS011;61102;51.956;5.878;2023-03-31T00:58:13;9.23;;;1.40;;
72951;SDS011;61102;51.956;5.878;2023-03-31T01:00:45;9.55;;;1.20;;
72951;SDS011;61102;51.956;5.878;2023-03-31T01:03:17;8.02;;;1.10;;
72951;SDS011;61102;51.956;5.878;2023-03-31T01:06:05;7.30;;;0.93;;
72951;SDS011;61102;51.956;5.878;2023-03-31T01:08:35;6.95;;;1.15;;
72951;SDS011;61102;51.956;5.878;2023-03-31T01:11:06;3.90;;;0.88;;
72951;SDS011;61102;51.956;5.878;2023-03-31T01:13:35;3.92;;;0.77;;
72951;SDS011;61102;51.956;5.878;2023-03-31T01:16:08;4.93;;;0.60;;
72951;SDS011;61102;51.956;5.878;2023-03-31T01:18:34;8.07;;;1.00;;
72951;SDS011;61102;51.956;5.878;2023-03-31T01:29:56;5.97;;;0.90;;
72951;SDS011;61102;51.956;5.878;2023-03-31T01:35:41;1.88;;;0.38;;
72951;SDS011;61102;51.956;5.878;2023-03-31T01:44:29;5.43;;;0.82;;
72951;SDS011;61102;51.956;5.878;2023-03-31T01:47:12;3.72;;;0.68;;
72951;SDS011;61102;51.956;5.878;2023-03-31T01:52:29;8.23;;;0.95;;
72951;SDS011;61102;51.956;5.878;2023-03-31T01:57:38;5.55;;;0.82;;
72951;SDS011;61102;51.956;5.878;2023-03-31T02:00:10;5.05;;;0.82;;
72951;SDS011;61102;51.956;5.878;2023-03-31T02:05:39;5.93;;;0.80;;
72951;SDS011;61102;51.956;5.878;2023-03-31T02:08:21;6.38;;;0.80;;
72951;SDS011;61102;51.956;5.878;2023-03-31T02:10:51;5.88;;;0.80;;
72951;SDS011;61102;51.956;5.878;2023-03-31T02:13:18;5.68;;;0.73;;
72951;SDS011;61102;51.956;5.878;2023-03-31T02:15:47;4.20;;;0.68;;
72951;SDS011;61102;51.956;5.878;2023-03-31T02:18:23;6.90;;;0.95;;
72951;SDS011;61102;51.956;5.878;2023-03-31T02:20:55;6.20;;;0.93;;
72951;SDS011;61102;51.956;5.878;2023-03-31T02:23:30;5.63;;;0.80;;
72951;SDS011;61102;51.956;5.878;2023-03-31T02:26:04;4.85;;;0.80;;
72951;SDS011;61102;51.956;5.878;2023-03-31T02:28:40;4.93;;;0.80;;
72951;SDS011;61102;51.956;5.878;2023-03-31T02:33:40;7.53;;;1.00;;
72951;SDS011;61102;51.956;5.878;2023-03-31T02:36:07;6.97;;;1.05;;
72951;SDS011;61102;51.956;5.878;2023-03-31T02:38:35;10.38;;;1.65;;
72951;SDS011;61102;51.956;5.878;2023-03-31T02:41:05;9.52;;;1.30;;
72951;SDS011;61102;51.956;5.878;2023-03-31T02:43:32;5.60;;;1.10;;
72951;SDS011;61102;51.956;5.878;2023-03-31T02:45:58;7.53;;;0.90;;
72951;SDS011;61102;51.956;5.878;2023-03-31T02:48:28;6.75;;;0.85;;
72951;SDS011;61102;51.956;5.878;2023-03-31T02:56:50;9.40;;;0.98;;
72951;SDS011;61102;51.956;5.878;2023-03-31T03:05:15;8.05;;;0.80;;
72951;SDS011;61102;51.956;5.878;2023-03-31T03:07:58;4.93;;;0.60;;
72951;SDS011;61102;51.956;5.878;2023-03-31T03:10:39;5.07;;;0.65;;
72951;SDS011;61102;51.956;5.878;2023-03-31T03:18:29;6.38;;;0.60;;
72951;SDS011;61102;51.956;5.878;2023-03-31T03:20:56;6.38;;;1.23;;
72951;SDS011;61102;51.956;5.878;2023-03-31T03:23:22;4.22;;;0.60;;
72951;SDS011;61102;51.956;5.878;2023-03-31T03:25:48;4.32;;;0.75;;
72951;SDS011;61102;51.956;5.878;2023-03-31T03:28:14;6.22;;;0.55;;
72951;SDS011;61102;51.956;5.878;2023-03-31T03:30:40;5.50;;;0.90;;
72951;SDS011;61102;51.956;5.878;2023-03-31T03:33:06;4.60;;;0.60;;
72951;SDS011;61102;51.956;5.878;2023-03-31T03:35:32;4.38;;;0.50;;
72951;SDS011;61102;51.956;5.878;2023-03-31T03:37:59;2.53;;;0.40;;
72951;SDS011;61102;51.956;5.878;2023-03-31T03:40:25;4.72;;;0.50;;
72951;SDS011;61102;51.956;5.878;2023-03-31T03:42:51;3.05;;;0.45;;
72951;SDS011;61102;51.956;5.878;2023-03-31T03:45:17;4.95;;;0.60;;
72951;SDS011;61102;51.956;5.878;2023-03-31T03:47:43;4.00;;;0.60;;
72951;SDS011;61102;51.956;5.878;2023-03-31T03:50:09;3.42;;;0.60;;
72951;SDS011;61102;51.956;5.878;2023-03-31T03:52:36;5.47;;;0.70;;
72951;SDS011;61102;51.956;5.878;2023-03-31T03:55:02;3.95;;;0.75;;
72951;SDS011;61102;51.956;5.878;2023-03-31T03:57:28;6.95;;;0.70;;
72951;SDS011;61102;51.956;5.878;2023-03-31T03:59:54;2.53;;;0.57;;
72951;SDS011;61102;51.956;5.878;2023-03-31T04:02:20;5.97;;;1.00;;
72951;SDS011;61102;51.956;5.878;2023-03-31T04:04:46;5.68;;;0.90;;
72951;SDS011;61102;51.956;5.878;2023-03-31T04:07:13;5.07;;;0.60;;
72951;SDS011;61102;51.956;5.878;2023-03-31T04:09:39;6.70;;;0.60;;
72951;SDS011;61102;51.956;5.878;2023-03-31T04:12:05;5.63;;;0.90;;
72951;SDS011;61102;51.956;5.878;2023-03-31T04:14:31;5.38;;;0.75;;
72951;SDS011;61102;51.956;5.878;2023-03-31T04:16:57;6.65;;;1.45;;
72951;SDS011;61102;51.956;5.878;2023-03-31T04:19:23;9.02;;;1.10;;
72951;SDS011;61102;51.956;5.878;2023-03-31T04:21:50;8.55;;;1.00;;
72951;SDS011;61102;51.956;5.878;2023-03-31T04:24:27;11.57;;;1.30;;
72951;SDS011;61102;51.956;5.878;2023-03-31T04:26:58;8.75;;;1.20;;
72951;SDS011;61102;51.956;5.878;2023-03-31T04:29:25;6.25;;;1.00;;
72951;SDS011;61102;51.956;5.878;2023-03-31T04:31:52;11.27;;;1.40;;
72951;SDS011;61102;51.956;5.878;2023-03-31T04:34:23;7.72;;;1.40;;
72951;SDS011;61102;51.956;5.878;2023-03-31T04:36:51;10.68;;;1.05;;
72951;SDS011;61102;51.956;5.878;2023-03-31T04:39:20;10.50;;;1.50;;
72951;SDS011;61102;51.956;5.878;2023-03-31T04:41:55;12.25;;;1.23;;
72951;SDS011;61102;51.956;5.878;2023-03-31T04:44:25;8.60;;;1.20;;
72951;SDS011;61102;51.956;5.878;2023-03-31T04:46:52;6.38;;;0.98;;
72951;SDS011;61102;51.956;5.878;2023-03-31T04:49:18;8.25;;;0.95;;
72951;SDS011;61102;51.956;5.878;2023-03-31T04:51:45;8.70;;;1.00;;
72951;SDS011;61102;51.956;5.878;2023-03-31T04:54:11;7.00;;;1.08;;
72951;SDS011;61102;51.956;5.878;2023-03-31T04:56:37;6.32;;;0.95;;
72951;SDS011;61102;51.956;5.878;2023-03-31T04:59:03;8.45;;;1.00;;
72951;SDS011;61102;51.956;5.878;2023-03-31T05:01:30;10.40;;;1.48;;
72951;SDS011;61102;51.956;5.878;2023-03-31T05:04:01;8.60;;;1.20;;
72951;SDS011;61102;51.956;5.878;2023-03-31T05:06:28;8.70;;;1.10;;
72951;SDS011;61102;51.956;5.878;2023-03-31T05:08:54;8.23;;;0.95;;
72951;SDS011;61102;51.956;5.878;2023-03-31T05:11:20;7.60;;;1.13;;
72951;SDS011;61102;51.956;5.878;2023-03-31T05:13:47;7.63;;;1.00;;
72951;SDS011;61102;51.956;5.878;2023-03-31T05:16:13;8.05;;;1.00;;
72951;SDS011;61102;51.956;5.878;2023-03-31T05:18:40;8.40;;;1.35;;
72951;SDS011;61102;51.956;5.878;2023-03-31T05:21:11;6.03;;;1.10;;
72951;SDS011;61102;51.956;5.878;2023-03-31T05:23:39;7.53;;;1.20;;
72951;SDS011;61102;51.956;5.878;2023-03-31T05:26:05;6.75;;;0.85;;
72951;SDS011;61102;51.956;5.878;2023-03-31T05:28:33;6.35;;;0.88;;
72951;SDS011;61102;51.956;5.878;2023-03-31T05:31:00;8.00;;;1.02;;
72951;SDS011;61102;51.956;5.878;2023-03-31T05:33:27;6.57;;;1.20;;
72951;SDS011;61102;51.956;5.878;2023-03-31T05:35:54;8.35;;;1.30;;
72951;SDS011;61102;51.956;5.878;2023-03-31T05:38:20;8.13;;;1.00;;
72951;SDS011;61102;51.956;5.878;2023-03-31T05:40:47;6.07;;;1.02;;
72951;SDS011;61102;51.956;5.878;2023-03-31T05:43:13;5.88;;;1.02;;
72951;SDS011;61102;51.956;5.878;2023-03-31T05:45:39;8.27;;;1.05;;
72951;SDS011;61102;51.956;5.878;2023-03-31T05:48:05;6.40;;;1.00;;
72951;SDS011;61102;51.956;5.878;2023-03-31T05:50:31;9.30;;;1.20;;
72951;SDS011;61102;51.956;5.878;2023-03-31T05:52:57;8.82;;;1.17;;
72951;SDS011;61102;51.956;5.878;2023-03-31T05:55:24;6.55;;;0.90;;
72951;SDS011;61102;51.956;5.878;2023-03-31T05:57:50;7.30;;;0.90;;
72951;SDS011;61102;51.956;5.878;2023-03-31T06:00:16;9.38;;;1.30;;
72951;SDS011;61102;51.956;5.878;2023-03-31T06:02:43;6.38;;;1.20;;
72951;SDS011;61102;51.956;5.878;2023-03-31T06:05:09;4.78;;;0.82;;
72951;SDS011;61102;51.956;5.878;2023-03-31T06:07:35;7.53;;;0.85;;
72951;SDS011;61102;51.956;5.878;2023-03-31T06:10:01;6.28;;;1.08;;
72951;SDS011;61102;51.956;5.878;2023-03-31T06:12:27;7.72;;;1.15;;
72951;SDS011;61102;51.956;5.878;2023-03-31T06:14:53;6.72;;;1.00;;
72951;SDS011;61102;51.956;5.878;2023-03-31T06:17:20;8.38;;;1.00;;
72951;SDS011;61102;51.956;5.878;2023-03-31T06:19:46;7.28;;;1.23;;
72951;SDS011;61102;51.956;5.878;2023-03-31T06:22:12;6.40;;;0.98;;
72951;SDS011;61102;51.956;5.878;2023-03-31T06:24:38;4.97;;;0.90;;
72951;SDS011;61102;51.956;5.878;2023-03-31T06:27:05;4.82;;;0.90;;
72951;SDS011;61102;51.956;5.878;2023-03-31T06:29:31;6.63;;;0.93;;
72951;SDS011;61102;51.956;5.878;2023-03-31T06:31:57;7.05;;;0.73;;
72951;SDS011;61102;51.956;5.878;2023-03-31T06:34:23;4.28;;;0.68;;
72951;SDS011;61102;51.956;5.878;2023-03-31T06:36:49;5.10;;;1.00;;
72951;SDS011;61102;51.956;5.878;2023-03-31T06:39:15;5.72;;;0.70;;
72951;SDS011;61102;51.956;5.878;2023-03-31T06:41:41;4.55;;;0.75;;
72951;SDS011;61102;51.956;5.878;2023-03-31T06:44:07;4.35;;;0.65;;
72951;SDS011;61102;51.956;5.878;2023-03-31T06:46:33;6.03;;;0.73;;
72951;SDS011;61102;51.956;5.878;2023-03-31T06:49:00;5.72;;;0.90;;
72951;SDS011;61102;51.956;5.878;2023-03-31T06:51:26;7.10;;;0.70;;
72951;SDS011;61102;51.956;5.878;2023-03-31T06:53:52;4.22;;;0.70;;
72951;SDS011;61102;51.956;5.878;2023-03-31T06:56:18;3.92;;;0.75;;
72951;SDS011;61102;51.956;5.878;2023-03-31T06:58:44;4.30;;;0.70;;
72951;SDS011;61102;51.956;5.878;2023-03-31T07:01:10;5.85;;;0.70;;
72951;SDS011;61102;51.956;5.878;2023-03-31T07:03:36;4.00;;;0.60;;
72951;SDS011;61102;51.956;5.878;2023-03-31T07:06:02;6.25;;;0.90;;
72951;SDS011;61102;51.956;5.878;2023-03-31T07:08:28;5.85;;;0.77;;
72951;SDS011;61102;51.956;5.878;2023-03-31T07:10:56;3.67;;;0.60;;
72951;SDS011;61102;51.956;5.878;2023-03-31T07:13:24;3.08;;;0.52;;
72951;SDS011;61102;51.956;5.878;2023-03-31T07:15:51;3.60;;;0.50;;
72951;SDS011;61102;51.956;5.878;2023-03-31T07:18:18;3.17;;;0.50;;
72951;SDS011;61102;51.956;5.878;2023-03-31T07:20:48;3.03;;;0.45;;
72951;SDS011;61102;51.956;5.878;2023-03-31T07:23:17;2.17;;;0.40;;
72951;SDS011;61102;51.956;5.878;2023-03-31T07:25:45;2.35;;;0.40;;
72951;SDS011;61102;51.956;5.878;2023-03-31T07:28:11;3.22;;;0.52;;
72951;SDS011;61102;51.956;5.878;2023-03-31T07:30:38;4.65;;;0.70;;
72951;SDS011;61102;51.956;5.878;2023-03-31T07:33:05;2.92;;;0.40;;
72951;SDS011;61102;51.956;5.878;2023-03-31T07:35:32;1.95;;;0.40;;
72951;SDS011;61102;51.956;5.878;2023-03-31T07:37:58;2.67;;;0.45;;
72951;SDS011;61102;51.956;5.878;2023-03-31T07:40:25;4.82;;;0.60;;
72951;SDS011;61102;51.956;5.878;2023-03-31T07:42:52;5.32;;;0.70;;
72951;SDS011;61102;51.956;5.878;2023-03-31T07:45:19;4.47;;;0.60;;
72951;SDS011;61102;51.956;5.878;2023-03-31T07:47:47;7.63;;;0.75;;
72951;SDS011;61102;51.956;5.878;2023-03-31T07:50:14;4.85;;;0.80;;
72951;SDS011;61102;51.956;5.878;2023-03-31T07:52:40;5.53;;;0.80;;
72951;SDS011;61102;51.956;5.878;2023-03-31T07:55:07;2.70;;;0.50;;
72951;SDS011;61102;51.956;5.878;2023-03-31T07:57:34;3.30;;;0.75;;
72951;SDS011;61102;51.956;5.878;2023-03-31T08:00:00;5.43;;;0.77;;
72951;SDS011;61102;51.956;5.878;2023-03-31T08:02:38;7.07;;;1.00;;
72951;SDS011;61102;51.956;5.878;2023-03-31T08:05:07;6.22;;;0.80;;
72951;SDS011;61102;51.956;5.878;2023-03-31T08:07:34;2.60;;;0.50;;
72951;SDS011;61102;51.956;5.878;2023-03-31T08:10:02;5.45;;;0.68;;
72951;SDS011;61102;51.956;5.878;2023-03-31T08:12:30;5.70;;;0.68;;
72951;SDS011;61102;51.956;5.878;2023-03-31T08:14:56;4.28;;;0.55;;
72951;SDS011;61102;51.956;5.878;2023-03-31T08:17:22;3.28;;;0.65;;
72951;SDS011;61102;51.956;5.878;2023-03-31T08:19:48;5.18;;;0.52;;
72951;SDS011;61102;51.956;5.878;2023-03-31T08:22:16;3.35;;;0.60;;
72951;SDS011;61102;51.956;5.878;2023-03-31T08:24:42;2.78;;;0.50;;
72951;SDS011;61102;51.956;5.878;2023-03-31T08:27:08;5.93;;;0.75;;
72951;SDS011;61102;51.956;5.878;2023-03-31T08:29:34;3.90;;;0.63;;
72951;SDS011;61102;51.956;5.878;2023-03-31T08:32:01;4.97;;;0.95;;
72951;SDS011;61102;51.956;5.878;2023-03-31T08:34:27;7.05;;;0.75;;
72951;SDS011;61102;51.956;5.878;2023-03-31T08:36:53;5.22;;;0.80;;
72951;SDS011;61102;51.956;5.878;2023-03-31T08:39:20;8.90;;;1.25;;
72951;SDS011;61102;51.956;5.878;2023-03-31T08:41:48;4.82;;;1.05;;
72951;SDS011;61102;51.956;5.878;2023-03-31T08:44:27;8.75;;;1.00;;
72951;SDS011;61102;51.956;5.878;2023-03-31T08:47:02;6.10;;;0.93;;
72951;SDS011;61102;51.956;5.878;2023-03-31T08:49:41;7.70;;;1.35;;
72951;SDS011;61102;51.956;5.878;2023-03-31T08:52:18;8.85;;;1.33;;
72951;SDS011;61102;51.956;5.878;2023-03-31T08:54:50;5.72;;;0.98;;
72951;SDS011;61102;51.956;5.878;2023-03-31T08:57:29;7.80;;;1.20;;
72951;SDS011;61102;51.956;5.878;2023-03-31T09:00:01;7.30;;;1.23;;
72951;SDS011;61102;51.956;5.878;2023-03-31T09:08:16;9.35;;;1.00;;
72951;SDS011;61102;51.956;5.878;2023-03-31T09:13:23;8.35;;;1.10;;
72951;SDS011;61102;51.956;5.878;2023-03-31T09:15:57;7.45;;;0.90;;
72951;SDS011;61102;51.956;5.878;2023-03-31T09:18:33;9.20;;;1.48;;
72951;SDS011;61102;51.956;5.878;2023-03-31T09:21:06;11.55;;;1.35;;
72951;SDS011;61102;51.956;5.878;2023-03-31T09:23:50;9.00;;;1.92;;
72951;SDS011;61102;51.956;5.878;2023-03-31T09:28:56;10.30;;;1.48;;
72951;SDS011;61102;51.956;5.878;2023-03-31T09:31:25;10.82;;;1.52;;
72951;SDS011;61102;51.956;5.878;2023-03-31T09:33:52;10.93;;;1.60;;
72951;SDS011;61102;51.956;5.878;2023-03-31T09:36:24;10.82;;;1.58;;
72951;SDS011;61102;51.956;5.878;2023-03-31T09:38:50;8.70;;;1.42;;
72951;SDS011;61102;51.956;5.878;2023-03-31T09:41:16;10.63;;;1.40;;
72951;SDS011;61102;51.956;5.878;2023-03-31T09:43:44;11.52;;;1.65;;
72951;SDS011;61102;51.956;5.878;2023-03-31T09:46:16;10.00;;;1.45;;
72951;SDS011;61102;51.956;5.878;2023-03-31T09:48:51;7.03;;;1.23;;
72951;SDS011;61102;51.956;5.878;2023-03-31T09:51:22;10.25;;;1.70;;
72951;SDS011;61102;51.956;5.878;2023-03-31T09:56:44;11.30;;;2.50;;
72951;SDS011;61102;51.956;5.878;2023-03-31T09:59:14;10.45;;;1.52;;
72951;SDS011;61102;51.956;5.878;2023-03-31T10:01:48;12.63;;;1.70;;
72951;SDS011;61102;51.956;5.878;2023-03-31T10:04:18;10.00;;;1.55;;
72951;SDS011;61102;51.956;5.878;2023-03-31T10:06:48;11.30;;;2.25;;
72951;SDS011;61102;51.956;5.878;2023-03-31T10:09:16;12.20;;;1.60;;
72951;SDS011;61102;51.956;5.878;2023-03-31T10:11:53;11.80;;;1.45;;
72951;SDS011;61102;51.956;5.878;2023-03-31T10:14:26;8.27;;;1.20;;
72951;SDS011;61102;51.956;5.878;2023-03-31T10:16:58;9.07;;;1.38;;
72951;SDS011;61102;51.956;5.878;2023-03-31T10:19:33;8.25;;;1.40;;
72951;SDS011;61102;51.956;5.878;2023-03-31T10:24:37;9.32;;;1.58;;
72951;SDS011;61102;51.956;5.878;2023-03-31T10:27:05;9.25;;;1.77;;
72951;SDS011;61102;51.956;5.878;2023-03-31T10:32:08;8.85;;;1.40;;
72951;SDS011;61102;51.956;5.878;2023-03-31T10:34:49;12.38;;;1.65;;
72951;SDS011;61102;51.956;5.878;2023-03-31T10:37:16;9.95;;;1.38;;
72951;SDS011;61102;51.956;5.878;2023-03-31T10:39:44;8.75;;;1.75;;
72951;SDS011;61102;51.956;5.878;2023-03-31T10:42:19;9.82;;;1.35;;
72951;SDS011;61102;51.956;5.878;2023-03-31T10:44:46;14.48;;;1.40;;
72951;SDS011;61102;51.956;5.878;2023-03-31T10:49:39;12.20;;;1.40;;
72951;SDS011;61102;51.956;5.878;2023-03-31T10:52:17;8.07;;;1.23;;
72951;SDS011;61102;51.956;5.878;2023-03-31T10:54:48;11.70;;;1.45;;
72951;SDS011;61102;51.956;5.878;2023-03-31T10:57:26;12.10;;;1.48;;
72951;SDS011;61102;51.956;5.878;2023-03-31T11:00:26;9.45;;;1.42;;
72951;SDS011;61102;51.956;5.878;2023-03-31T11:03:13;9.02;;;1.35;;
72951;SDS011;61102;51.956;5.878;2023-03-31T11:06:04;9.73;;;1.33;;
72951;SDS011;61102;51.956;5.878;2023-03-31T11:11:30;8.57;;;1.20;;
72951;SDS011;61102;51.956;5.878;2023-03-31T11:14:31;8.82;;;1.05;;
72951;SDS011;61102;51.956;5.878;2023-03-31T11:17:24;9.57;;;1.73;;
72951;SDS011;61102;51.956;5.878;2023-03-31T11:20:01;11.80;;;1.45;;
72951;SDS011;61102;51.956;5.878;2023-03-31T11:22:50;7.65;;;1.20;;
72951;SDS011;61102;51.956;5.878;2023-03-31T11:25:48;6.72;;;0.90;;
72951;SDS011;61102;51.956;5.878;2023-03-31T11:32:19;7.35;;;1.25;;
72951;SDS011;61102;51.956;5.878;2023-03-31T11:34:43;8.60;;;1.30;;
72951;SDS011;61102;51.956;5.878;2023-03-31T11:37:18;13.60;;;1.50;;
72951;SDS011;61102;51.956;5.878;2023-03-31T11:40:00;9.70;;;1.27;;
72951;SDS011;61102;51.956;5.878;2023-03-31T11:42:57;7.93;;;1.25;;
72951;SDS011;61102;51.956;5.878;2023-03-31T11:46:01;9.32;;;1.25;;
72951;SDS011;61102;51.956;5.878;2023-03-31T11:51:32;9.82;;;1.38;;
72951;SDS011;61102;51.956;5.878;2023-03-31T11:54:09;7.13;;;1.75;;
72951;SDS011;61102;51.956;5.878;2023-03-31T11:56:47;10.50;;;1.40;;
72951;SDS011;61102;51.956;5.878;2023-03-31T11:59:14;8.13;;;1.40;;
72951;SDS011;61102;51.956;5.878;2023-03-31T12:01:54;10.20;;;1.67;;
72951;SDS011;61102;51.956;5.878;2023-03-31T12:04:38;9.98;;;1.45;;
72951;SDS011;61102;51.956;5.878;2023-03-31T12:07:25;10.98;;;1.80;;
72951;SDS011;61102;51.956;5.878;2023-03-31T12:09:58;10.80;;;1.52;;
72951;SDS011;61102;51.956;5.878;2023-03-31T12:12:48;10.13;;;1.30;;
72951;SDS011;61102;51.956;5.878;2023-03-31T12:15:28;9.43;;;1.30;;
72951;SDS011;61102;51.956;5.878;2023-03-31T12:18:09;8.95;;;1.08;;
72951;SDS011;61102;51.956;5.878;2023-03-31T12:20:40;9.15;;;1.48;;
72951;SDS011;61102;51.956;5.878;2023-03-31T12:23:27;9.77;;;1.40;;
72951;SDS011;61102;51.956;5.878;2023-03-31T12:26:11;7.95;;;1.40;;
72951;SDS011;61102;51.956;5.878;2023-03-31T12:28:39;11.43;;;1.83;;
72951;SDS011;61102;51.956;5.878;2023-03-31T12:31:09;8.60;;;1.33;;
72951;SDS011;61102;51.956;5.878;2023-03-31T12:33:42;9.50;;;2.15;;
72951;SDS011;61102;51.956;5.878;2023-03-31T12:44:13;8.68;;;1.33;;
72951;SDS011;61102;51.956;5.878;2023-03-31T12:47:12;10.20;;;1.35;;
72951;SDS011;61102;51.956;5.878;2023-03-31T12:55:53;9.02;;;1.20;;
72951;SDS011;61102;51.956;5.878;2023-03-31T13:01:01;7.32;;;1.20;;
72951;SDS011;61102;51.956;5.878;2023-03-31T13:03:41;9.50;;;1.38;;
72951;SDS011;61102;51.956;5.878;2023-03-31T13:08:55;9.02;;;1.17;;
72951;SDS011;61102;51.956;5.878;2023-03-31T13:16:31;5.05;;;0.75;;
72951;SDS011;61102;51.956;5.878;2023-03-31T13:18:59;6.30;;;0.98;;
72951;SDS011;61102;51.956;5.878;2023-03-31T13:21:25;3.92;;;0.85;;
72951;SDS011;61102;51.956;5.878;2023-03-31T13:23:52;7.72;;;0.80;;
72951;SDS011;61102;51.956;5.878;2023-03-31T13:26:34;5.00;;;0.80;;
72951;SDS011;61102;51.956;5.878;2023-03-31T13:29:08;6.53;;;1.15;;
72951;SDS011;61102;51.956;5.878;2023-03-31T13:49:06;6.07;;;1.42;;
72951;SDS011;61102;51.956;5.878;2023-03-31T13:52:03;8.52;;;1.60;;
72951;SDS011;61102;51.956;5.878;2023-03-31T14:03:34;10.52;;;2.05;;
72951;SDS011;61102;51.956;5.878;2023-03-31T14:11:59;8.38;;;1.30;;
72951;SDS011;61102;51.956;5.878;2023-03-31T14:14:26;9.27;;;1.77;;
72951;SDS011;61102;51.956;5.878;2023-03-31T14:16:55;11.25;;;1.55;;
72951;SDS011;61102;51.956;5.878;2023-03-31T14:19:28;8.02;;;1.50;;
72951;SDS011;61102;51.956;5.878;2023-03-31T14:22:13;8.05;;;1.40;;
72951;SDS011;61102;51.956;5.878;2023-03-31T14:25:00;6.88;;;1.13;;
72951;SDS011;61102;51.956;5.878;2023-03-31T14:30:17;8.32;;;1.10;;
72951;SDS011;61102;51.956;5.878;2023-03-31T14:33:20;8.50;;;2.10;;
72951;SDS011;61102;51.956;5.878;2023-03-31T14:36:00;10.55;;;2.40;;
72951;SDS011;61102;51.956;5.878;2023-03-31T14:38:45;7.60;;;1.60;;
72951;SDS011;61102;51.956;5.878;2023-03-31T14:41:15;7.30;;;1.00;;
72951;SDS011;61102;51.956;5.878;2023-03-31T14:43:54;10.30;;;2.50;;
72951;SDS011;61102;51.956;5.878;2023-03-31T14:46:22;7.50;;;2.20;;
72951;SDS011;61102;51.956;5.878;2023-03-31T14:48:49;5.75;;;1.15;;
72951;SDS011;61102;51.956;5.878;2023-03-31T14:51:17;8.02;;;1.17;;
72951;SDS011;61102;51.956;5.878;2023-03-31T14:53:58;7.47;;;0.95;;
72951;SDS011;61102;51.956;5.878;2023-03-31T14:56:36;5.65;;;1.05;;
72951;SDS011;61102;51.956;5.878;2023-03-31T14:59:05;5.93;;;0.70;;
72951;SDS011;61102;51.956;5.878;2023-03-31T15:01:32;5.60;;;0.70;;
72951;SDS011;61102;51.956;5.878;2023-03-31T15:04:12;4.45;;;0.68;;
72951;SDS011;61102;51.956;5.878;2023-03-31T15:06:40;6.05;;;0.98;;
72951;SDS011;61102;51.956;5.878;2023-03-31T15:09:11;4.18;;;0.70;;
72951;SDS011;61102;51.956;5.878;2023-03-31T15:11:44;4.18;;;0.60;;
72951;SDS011;61102;51.956;5.878;2023-03-31T15:14:11;5.45;;;0.70;;
72951;SDS011;61102;51.956;5.878;2023-03-31T15:19:16;3.55;;;0.60;;
72951;SDS011;61102;51.956;5.878;2023-03-31T15:21:45;4.95;;;0.70;;
72951;SDS011;61102;51.956;5.878;2023-03-31T15:24:12;1.52;;;0.50;;
72951;SDS011;61102;51.956;5.878;2023-03-31T15:29:13;3.63;;;0.73;;
72951;SDS011;61102;51.956;5.878;2023-03-31T15:31:46;3.63;;;0.60;;
72951;SDS011;61102;51.956;5.878;2023-03-31T15:34:13;3.58;;;0.90;;
72951;SDS011;61102;51.956;5.878;2023-03-31T15:36:43;6.35;;;0.73;;
72951;SDS011;61102;51.956;5.878;2023-03-31T15:39:10;5.65;;;0.82;;
72951;SDS011;61102;51.956;5.878;2023-03-31T15:41:39;5.97;;;0.60;;
72951;SDS011;61102;51.956;5.878;2023-03-31T15:44:06;12.55;;;3.63;;
72951;SDS011;61102;51.956;5.878;2023-03-31T15:47:04;28.70;;;10.50;;
72951;SDS011;61102;51.956;5.878;2023-03-31T15:49:49;30.27;;;14.40;;
72951;SDS011;61102;51.956;5.878;2023-03-31T15:52:38;13.13;;;4.65;;
72951;SDS011;61102;51.956;5.878;2023-03-31T15:58:07;8.57;;;2.17;;
72951;SDS011;61102;51.956;5.878;2023-03-31T16:00:47;6.90;;;1.60;;
72951;SDS011;61102;51.956;5.878;2023-03-31T16:03:17;10.02;;;2.10;;
72951;SDS011;61102;51.956;5.878;2023-03-31T16:05:54;6.43;;;1.70;;
72951;SDS011;61102;51.956;5.878;2023-03-31T16:08:23;7.20;;;1.40;;
72951;SDS011;61102;51.956;5.878;2023-03-31T16:11:06;9.20;;;3.25;;
72951;SDS011;61102;51.956;5.878;2023-03-31T16:13:39;12.48;;;5.80;;
72951;SDS011;61102;51.956;5.878;2023-03-31T16:16:12;17.67;;;8.57;;
72951;SDS011;61102;51.956;5.878;2023-03-31T16:18:41;14.63;;;5.70;;
72951;SDS011;61102;51.956;5.878;2023-03-31T16:21:11;11.30;;;2.50;;
72951;SDS011;61102;51.956;5.878;2023-03-31T16:23:40;7.50;;;2.30;;
72951;SDS011;61102;51.956;5.878;2023-03-31T16:26:09;11.25;;;3.10;;
72951;SDS011;61102;51.956;5.878;2023-03-31T16:28:36;9.80;;;3.05;;
72951;SDS011;61102;51.956;5.878;2023-03-31T16:31:03;6.18;;;1.70;;
72951;SDS011;61102;51.956;5.878;2023-03-31T16:38:42;7.38;;;2.15;;
72951;SDS011;61102;51.956;5.878;2023-03-31T16:41:08;8.02;;;2.55;;
72951;SDS011;61102;51.956;5.878;2023-03-31T16:43:34;9.43;;;2.95;;
72951;SDS011;61102;51.956;5.878;2023-03-31T16:46:01;5.65;;;1.90;;
72951;SDS011;61102;51.956;5.878;2023-03-31T16:48:30;4.40;;;1.00;;
72951;SDS011;61102;51.956;5.878;2023-03-31T16:51:00;4.18;;;1.23;;
72951;SDS011;61102;51.956;5.878;2023-03-31T16:53:28;5.55;;;1.40;;
72951;SDS011;61102;51.956;5.878;2023-03-31T16:55:56;9.93;;;3.00;;
72951;SDS011;61102;51.956;5.878;2023-03-31T16:58:22;11.18;;;3.13;;
72951;SDS011;61102;51.956;5.878;2023-03-31T17:00:49;8.95;;;3.60;;
72951;SDS011;61102;51.956;5.878;2023-03-31T17:03:16;9.35;;;2.85;;
72951;SDS011;61102;51.956;5.878;2023-03-31T17:05:44;7.75;;;2.30;;
72951;SDS011;61102;51.956;5.878;2023-03-31T17:08:12;5.85;;;1.60;;
72951;SDS011;61102;51.956;5.878;2023-03-31T17:10:39;4.38;;;0.90;;
72951;SDS011;61102;51.956;5.878;2023-03-31T17:13:06;3.28;;;0.70;;
72951;SDS011;61102;51.956;5.878;2023-03-31T17:15:33;4.70;;;0.90;;
72951;SDS011;61102;51.956;5.878;2023-03-31T17:18:00;3.92;;;1.00;;
72951;SDS011;61102;51.956;5.878;2023-03-31T17:20:28;3.30;;;0.70;;
72951;SDS011;61102;51.956;5.878;2023-03-31T17:22:55;3.80;;;0.95;;
72951;SDS011;61102;51.956;5.878;2023-03-31T17:25:21;5.40;;;1.42;;
72951;SDS011;61102;51.956;5.878;2023-03-31T17:27:47;6.45;;;1.50;;
72951;SDS011;61102;51.956;5.878;2023-03-31T17:30:14;8.57;;;2.13;;
72951;SDS011;61102;51.956;5.878;2023-03-31T17:32:40;6.25;;;1.50;;
72951;SDS011;61102;51.956;5.878;2023-03-31T17:35:07;4.15;;;0.88;;
72951;SDS011;61102;51.956;5.878;2023-03-31T17:37:35;3.08;;;0.75;;
72951;SDS011;61102;51.956;5.878;2023-03-31T17:40:02;3.75;;;0.85;;
72951;SDS011;61102;51.956;5.878;2023-03-31T17:42:31;5.40;;;0.70;;
72951;SDS011;61102;51.956;5.878;2023-03-31T17:44:57;3.65;;;0.80;;
72951;SDS011;61102;51.956;5.878;2023-03-31T17:47:23;3.75;;;0.60;;